Time;durP1;ratioP1;P1;durP2;ratioP2;P2;SDS_P1;SDS_P2;PMS_P1;PMS_P2;Temp;Humidity;BMP_temperature;BMP_pressure;BME280_temperature;BME280_humidity;BME280_pressure;Samples;Min_cycle;Max_cycle;Signal;HPM_P1;HPM_P2
2022/11/17 00:01:51;;;;;;;4.33;2.93;;;8.50;99.90;;;;;;4992610;28;20516;-70
2022/11/17 00:04:18;;;;;;;5.23;2.27;;;8.60;99.90;;;;;;4974770;28;20458;-71
2022/11/17 00:06:45;;;;;;;3.17;2.13;;;8.60;99.90;;;;;;4986905;28;20801;-70
2022/11/17 00:09:16;;;;;;;6.10;2.80;;;8.60;99.90;;;;;;4980703;28;20458;-70
2022/11/17 00:14:32;;;;;;;2.57;2.03;;;8.70;99.90;;;;;;4949335;28;20591;-70
2022/11/17 00:16:59;;;;;;;3.27;2.43;;;8.70;99.90;;;;;;4978426;28;20449;-70
2022/11/17 00:22:11;;;;;;;2.23;1.73;;;8.80;99.90;;;;;;4974440;28;20465;-70
2022/11/17 00:24:39;;;;;;;3.27;2.23;;;;;;;;;;4987233;28;20822;-70
2022/11/17 00:27:07;;;;;;;3.40;2.87;;;;;;;;;;4990322;28;20807;-70
2022/11/17 00:29:34;;;;;;;5.33;2.40;;;;;;;;;;4993352;28;20452;-70
2022/11/17 00:34:45;;;;;;;3.40;2.43;;;;;;;;;;4986732;28;20585;-70
2022/11/17 00:37:13;;;;;;;6.80;2.47;;;;;;;;;;4984064;28;20457;-70
2022/11/17 00:39:42;;;;;;;11.10;3.00;;;;;;;;;;4979506;28;20828;-70
2022/11/17 00:42:09;;;;;;;5.43;2.10;;;;;;;;;;4993564;28;20453;-70
2022/11/17 00:44:36;;;;;;;2.87;2.67;;;;;;;;;;4987597;28;20941;-70
2022/11/17 00:47:03;;;;;;;4.50;3.10;;;;;;;;;;4988547;28;20875;-69
2022/11/17 00:49:30;;;;;;;3.73;2.83;;;;;;;;;;4982735;28;20451;-70
2022/11/17 00:51:57;;;;;;;6.00;3.80;;;;;;;;;;4984876;28;20464;-70
2022/11/17 00:54:24;;;;;;;2.93;2.70;;;;;;;;;;4985705;28;20828;-71
2022/11/17 00:56:53;;;;;;;3.33;2.93;;;;;;;;;;4985201;28;20944;-70
2022/11/17 00:59:20;;;;;;;3.87;3.00;;;;;;;;;;4992594;28;20449;-70
2022/11/17 01:01:47;;;;;;;3.53;2.43;;;;;;;;;;4992017;28;20925;-70
2022/11/17 01:04:15;;;;;;;2.67;2.43;;;;;;;;;;4989995;28;20553;-70
2022/11/17 01:06:44;;;;;;;3.37;2.30;;;;;;;;;;4990839;28;20457;-70
2022/11/17 01:09:12;;;;;;;2.60;2.00;;;;;;;;;;4985373;28;20458;-70
2022/11/17 01:11:39;;;;;;;4.00;2.40;;;;;;;;;;4976653;28;20481;-69
2022/11/17 01:14:08;;;;;;;3.70;2.50;;;;;;;;;;4991405;28;20568;-70
2022/11/17 01:16:35;;;;;;;3.90;2.50;;;;;;;;;;4977784;28;20451;-70
2022/11/17 01:19:03;;;;;;;3.30;2.50;;;;;;;;;;4979506;28;20474;-70
2022/11/17 01:21:30;;;;;;;3.33;2.77;;;;;;;;;;4974899;28;20462;-70
2022/11/17 01:23:58;;;;;;;4.77;3.10;;;;;;;;;;4982797;28;20456;-70
2022/11/17 01:26:27;;;;;;;4.00;2.83;;;;;;;;;;4975546;28;20544;-70
2022/11/17 01:28:54;;;;;;;3.80;2.20;;;;;;;;;;4981754;28;20459;-70
2022/11/17 01:31:23;;;;;;;2.60;2.40;;;;;;;;;;4985346;28;20485;-70
2022/11/17 01:33:50;;;;;;;4.80;2.43;;;;;;;;;;4972312;28;20459;-70
2022/11/17 01:36:18;;;;;;;2.63;2.13;;;;;;;;;;4985373;28;20813;-70
2022/11/17 01:38:46;;;;;;;3.10;2.80;;;;;;;;;;4972262;28;20454;-70
2022/11/17 01:41:14;;;;;;;6.63;2.50;;;;;;;;;;4986233;28;20504;-70
2022/11/17 01:43:42;;;;;;;3.73;2.40;;;;;;;;;;4983321;28;20449;-70
2022/11/17 01:46:14;;;;;;;6.70;2.87;;;;;;;;;;4973858;28;20458;-70
2022/11/17 01:48:44;;;;;;;2.10;1.90;;;;;;;;;;4984300;28;20449;-70
2022/11/17 01:51:12;;;;;;;3.30;2.10;;;;;;;;;;4973096;28;20492;-70
2022/11/17 01:53:41;;;;;;;3.97;2.43;;;;;;;;;;4985677;28;20445;-70
2022/11/17 01:56:10;;;;;;;5.73;2.17;;;;;;;;;;4984657;28;20927;-70
2022/11/17 01:58:41;;;;;;;4.40;2.80;;;;;;;;;;4975804;28;20446;-70
2022/11/17 02:01:08;;;;;;;2.80;2.33;;;;;;;;;;4984217;28;20488;-69
2022/11/17 02:03:37;;;;;;;3.40;2.40;;;;;;;;;;4990076;28;20481;-70
2022/11/17 02:06:07;;;;;;;5.77;3.13;;;;;;;;;;4991500;28;20811;-70
2022/11/17 02:08:35;;;;;;;2.60;2.20;;;;;;;;;;4991199;28;20498;-70
2022/11/17 02:11:04;;;;;;;2.53;2.20;;;;;;;;;;4982650;28;20496;-70
2022/11/17 02:13:31;;;;;;;2.53;2.33;;;;;;;;;;4985221;28;20454;-70
2022/11/17 02:15:58;;;;;;;6.57;2.47;;;;;;;;;;4981600;28;20469;-70
2022/11/17 02:18:25;;;;;;;4.83;2.67;;;;;;;;;;4987185;28;20820;-70
2022/11/17 02:20:59;;;;;;;4.20;2.33;;;;;;;;;;4991160;28;20491;-70
2022/11/17 02:23:44;;;;;;;2.90;2.10;;;;;;;;;;4976563;28;20449;-70
2022/11/17 02:26:21;;;;;;;4.30;2.30;;;;;;;;;;4986682;28;20445;-70
2022/11/17 02:28:53;;;;;;;2.73;2.33;;;;;;;;;;4977540;28;20454;-70
2022/11/17 02:31:23;;;;;;;3.40;2.37;;;;;;;;;;4976895;28;20979;-70
2022/11/17 02:33:55;;;;;;;3.97;2.50;;;;;;;;;;4990804;28;20450;-70
2022/11/17 02:36:27;;;;;;;3.60;2.67;;;;;;;;;;4990805;28;20449;-70
2022/11/17 02:38:58;;;;;;;3.00;2.43;;;;;;;;;;4990644;28;20449;-70
2022/11/17 02:41:27;;;;;;;2.40;1.90;;;;;;;;;;4984875;28;20457;-70
2022/11/17 02:44:05;;;;;;;6.10;2.57;;;;;;;;;;4989658;28;20521;-71
2022/11/17 02:46:39;;;;;;;4.20;3.00;;;;;;;;;;4978778;28;20459;-70
2022/11/17 02:49:10;;;;;;;3.97;3.03;;;;;;;;;;4988753;28;20460;-70
2022/11/17 02:51:38;;;;;;;3.87;2.00;;;;;;;;;;4988369;28;20848;-70
2022/11/17 02:54:06;;;;;;;3.00;2.23;;;;;;;;;;4984532;28;20814;-70
2022/11/17 02:56:33;;;;;;;3.40;2.60;;;;;;;;;;4979899;28;20478;-70
2022/11/17 02:59:03;;;;;;;4.20;2.70;;;;;;;;;;4986744;28;20458;-70
2022/11/17 03:01:39;;;;;;;3.90;2.70;;;;;;;;;;4987856;28;20484;-70
2022/11/17 03:04:13;;;;;;;4.80;2.20;;;;;;;;;;4981661;28;20453;-70
2022/11/17 03:06:45;;;;;;;3.40;2.60;;;;;;;;;;4976676;28;20458;-69
2022/11/17 03:09:16;;;;;;;3.77;2.33;;;;;;;;;;4984382;28;20458;-70
2022/11/17 03:11:45;;;;;;;4.07;2.73;;;;;;;;;;4977425;28;20845;-70
2022/11/17 03:14:20;;;;;;;2.97;2.40;;;;;;;;;;4990786;28;20449;-70
2022/11/17 03:16:51;;;;;;;2.47;2.23;;;;;;;;;;4986180;28;20976;-70
2022/11/17 03:19:20;;;;;;;3.10;2.17;;;;;;;;;;4990828;28;20783;-70
2022/11/17 03:21:48;;;;;;;3.30;2.70;;;;;;;;;;4975490;28;20460;-70
2022/11/17 03:24:17;;;;;;;5.07;2.30;;;;;;;;;;4990468;28;20805;-70
2022/11/17 03:26:46;;;;;;;9.70;2.50;;;;;;;;;;4977461;28;20460;-70
2022/11/17 03:29:15;;;;;;;3.33;3.00;;;;;;;;;;4991140;28;20531;-70
2022/11/17 03:31:47;;;;;;;3.83;2.30;;;9.00;99.90;;;;;;4989636;28;20494;-70
2022/11/17 03:34:18;;;;;;;5.00;3.43;;;8.50;99.90;;;;;;4987090;28;20450;-70
2022/11/17 03:36:48;;;;;;;3.23;2.70;;;8.50;99.90;;;;;;4983392;28;20452;-70
2022/11/17 03:39:22;;;;;;;2.60;2.07;;;8.60;99.90;;;;;;4993325;28;20937;-70
2022/11/17 03:41:52;;;;;;;3.37;2.60;;;8.70;99.90;;;;;;4993520;28;20457;-70
2022/11/17 03:44:23;;;;;;;3.90;2.93;;;8.80;99.90;;;;;;4988139;28;20962;-71
2022/11/17 03:46:54;;;;;;;4.70;3.30;;;8.70;99.90;;;;;;4979304;28;20466;-69
2022/11/17 03:49:27;;;;;;;2.90;2.60;;;8.60;99.90;;;;;;4990238;28;20450;-70
2022/11/17 03:51:54;;;;;;;3.73;2.97;;;8.70;99.90;;;;;;4985996;28;20497;-70
2022/11/17 03:54:21;;;;;;;3.87;2.37;;;8.70;99.90;;;;;;4994380;28;20460;-70
2022/11/17 03:56:54;;;;;;;3.57;2.83;;;8.70;99.90;;;;;;4992585;28;20465;-69
2022/11/17 03:59:25;;;;;;;3.37;2.70;;;8.80;99.90;;;;;;4984685;28;20446;-70
2022/11/17 04:01:54;;;;;;;3.73;2.23;;;8.70;99.90;;;;;;4987427;28;20488;-70
2022/11/17 04:04:22;;;;;;;2.50;1.87;;;8.80;99.90;;;;;;4982994;28;20456;-69
2022/11/17 04:06:50;;;;;;;4.43;2.00;;;8.70;99.90;;;;;;4980170;28;20456;-69
2022/11/17 04:09:17;;;;;;;2.87;2.30;;;8.80;99.90;;;;;;4988625;28;20465;-70
2022/11/17 04:17:13;;;;;;;2.03;1.83;;;8.90;99.90;;;;;;4974352;28;20475;-70
2022/11/17 04:19:40;;;;;;;3.83;2.40;;;9.10;99.90;;;;;;4986206;28;20458;-69
2022/11/17 04:22:07;;;;;;;2.27;2.07;;;9.00;99.90;;;;;;4981813;28;20457;-70
2022/11/17 04:24:33;;;;;;;2.40;1.83;;;9.20;99.90;;;;;;4991340;28;20805;-70
2022/11/17 04:29:44;;;;;;;2.17;1.63;;;9.30;99.90;;;;;;4989170;28;20424;-70
2022/11/17 04:32:12;;;;;;;1.80;1.70;;;9.30;99.90;;;;;;4993086;28;20480;-70
2022/11/17 04:34:41;;;;;;;2.30;1.87;;;9.20;99.90;;;;;;4992999;28;20476;-69
2022/11/17 04:37:16;;;;;;;3.10;1.97;;;9.30;99.90;;;;;;4992412;28;20941;-70
2022/11/17 04:39:43;;;;;;;3.37;1.27;;;9.30;99.90;;;;;;4990406;28;20457;-69
2022/11/17 04:42:09;;;;;;;4.57;2.20;;;9.40;99.90;;;;;;4974046;28;20462;-69
2022/11/17 04:44:36;;;;;;;2.40;2.10;;;9.40;99.90;;;;;;4987267;28;20463;-73
2022/11/17 04:47:04;;;;;;;7.60;2.27;;;9.40;99.90;;;;;;4990641;28;20449;-72
2022/11/17 04:49:33;;;;;;;2.70;2.07;;;9.30;99.90;;;;;;4992800;28;20457;-71
2022/11/17 04:52:00;;;;;;;7.90;5.37;;;9.30;99.90;;;;;;4988485;28;20497;-72
2022/11/17 04:54:27;;;;;;;11.70;6.30;;;9.30;99.90;;;;;;4985984;28;20465;-74
2022/11/17 04:56:55;;;;;;;2.83;1.90;;;9.40;99.90;;;;;;4986945;28;20457;-70
2022/11/17 04:59:22;;;;;;;2.10;1.50;;;9.40;99.90;;;;;;4983960;28;20467;-70
2022/11/17 05:01:49;;;;;;;3.93;1.83;;;9.50;99.90;;;;;;4984634;28;20489;-70
2022/11/17 05:04:54;;;;;;;4.10;2.07;;;9.50;99.90;;;;;;4983116;28;20972;-71
2022/11/17 05:07:08;;;;;;;3.83;1.23;;;9.40;99.90;;;;;;4975633;28;20467;-72
2022/11/17 05:09:35;;;;;;;3.00;2.10;;;9.40;99.90;;;;;;4989817;28;20484;-72
2022/11/17 05:14:48;;;;;;;3.10;1.43;;;9.40;99.90;;;;;;4986039;28;20516;-71
2022/11/17 05:17:15;;;;;;;5.50;2.03;;;9.40;99.90;;;;;;4980508;28;20548;-72
2022/11/17 05:19:43;;;;;;;2.00;1.60;;;9.30;99.90;;;;;;4978858;28;20463;-72
2022/11/17 05:24:57;;;;;;;1.90;1.70;;;9.40;99.90;;;;;;4975323;28;20829;-72
2022/11/17 05:27:24;;;;;;;2.00;1.80;;;9.40;99.90;;;;;;4983426;28;20458;-72
2022/11/17 05:29:51;;;;;;;3.80;1.90;;;9.60;99.90;;;;;;4975366;28;20450;-72
2022/11/17 05:32:18;;;;;;;2.40;1.77;;;9.60;99.90;;;;;;4983481;28;20495;-72
2022/11/17 05:34:45;;;;;;;1.97;1.60;;;9.60;99.90;;;;;;4974774;28;20942;-72
2022/11/17 05:37:13;;;;;;;2.53;1.80;;;9.60;99.90;;;;;;4983336;28;20445;-73
2022/11/17 05:39:40;;;;;;;2.70;2.20;;;9.50;99.90;;;;;;4975876;28;20463;-72
2022/11/17 05:42:07;;;;;;;2.03;1.40;;;9.50;99.90;;;;;;4982188;28;20466;-72
2022/11/17 05:44:34;;;;;;;1.67;1.47;;;9.60;99.90;;;;;;4985752;28;20456;-72
2022/11/17 05:47:00;;;;;;;1.93;1.70;;;9.60;99.90;;;;;;4972276;28;20980;-72
2022/11/17 05:49:27;;;;;;;2.57;1.70;;;9.70;99.90;;;;;;4985881;28;20460;-73
2022/11/17 05:51:54;;;;;;;1.83;1.60;;;9.70;99.90;;;;;;4971415;28;20496;-72
2022/11/17 05:54:22;;;;;;;3.83;2.20;;;9.70;99.90;;;;;;4985447;28;20457;-72
2022/11/17 05:56:52;;;;;;;5.13;2.53;;;9.60;99.90;;;;;;4972393;28;20465;-71
2022/11/17 05:59:26;;;;;;;2.30;1.87;;;9.50;99.90;;;;;;4986032;28;20451;-72
2022/11/17 06:01:57;;;;;;;2.80;1.87;;;9.40;99.90;;;;;;4985268;28;20484;-71
2022/11/17 06:04:24;;;;;;;3.70;2.50;;;9.40;99.90;;;;;;4980948;28;20446;-71
2022/11/17 06:06:51;;;;;;;4.37;2.73;;;9.30;99.90;;;;;;4976963;28;20459;-72
2022/11/17 06:09:19;;;;;;;2.77;1.80;;;9.40;99.90;;;;;;4986370;28;20541;-72
2022/11/17 06:11:47;;;;;;;2.00;1.60;;;9.50;99.90;;;;;;4989456;28;20486;-72
2022/11/17 06:14:13;;;;;;;1.60;1.30;;;9.60;99.90;;;;;;4981184;28;20937;-72
2022/11/17 06:16:45;;;;;;;2.83;2.07;;;9.50;99.90;;;;;;4975834;28;20950;-71
2022/11/17 06:19:18;;;;;;;3.93;1.87;;;9.50;99.90;;;;;;4982491;28;20450;-72
2022/11/17 06:21:45;;;;;;;2.27;1.60;;;9.50;99.90;;;;;;4974728;28;20454;-72
2022/11/17 06:24:12;;;;;;;3.20;1.97;;;9.50;99.90;;;;;;4982820;28;20471;-72
2022/11/17 06:26:40;;;;;;;1.70;1.53;;;9.50;99.90;;;;;;4991528;28;20458;-71
2022/11/17 06:29:11;;;;;;;2.97;2.13;;;9.50;99.90;;;;;;4980865;28;20561;-71
2022/11/17 06:31:39;;;;;;;2.10;1.47;;;9.40;99.90;;;;;;4976897;28;20493;-71
2022/11/17 06:34:06;;;;;;;3.97;2.20;;;9.30;99.90;;;;;;4979760;28;20454;-72
2022/11/17 06:36:33;;;;;;;1.57;1.27;;;9.10;99.90;;;;;;4978227;28;20458;-72
2022/11/17 06:39:00;;;;;;;1.90;1.70;;;9.00;99.90;;;;;;4978842;28;20455;-72
2022/11/17 06:41:27;;;;;;;2.70;2.07;;;9.10;99.90;;;;;;4981616;28;20462;-72
2022/11/17 06:43:53;;;;;;;1.93;1.63;;;9.10;99.90;;;;;;4983598;28;20453;-73
2022/11/17 06:46:22;;;;;;;2.10;1.77;;;9.00;99.90;;;;;;4972603;28;20454;-72
2022/11/17 06:48:48;;;;;;;2.00;1.27;;;9.00;99.90;;;;;;4984343;28;20457;-72
2022/11/17 06:51:15;;;;;;;4.50;1.97;;;9.10;99.90;;;;;;4985282;28;20462;-72
2022/11/17 06:53:42;;;;;;;3.00;1.97;;;9.10;99.90;;;;;;4970855;28;20456;-72
2022/11/17 06:56:10;;;;;;;4.23;1.93;;;9.20;99.90;;;;;;4972327;28;20450;-72
2022/11/17 06:58:40;;;;;;;3.73;1.57;;;9.30;99.90;;;;;;4984696;28;20953;-70
2022/11/17 07:01:08;;;;;;;2.93;1.80;;;9.40;99.90;;;;;;4980046;28;20509;-72
2022/11/17 07:03:38;;;;;;;1.97;1.77;;;9.50;99.90;;;;;;4981335;28;20453;-72
2022/11/17 07:06:07;;;;;;;2.30;1.60;;;9.40;99.90;;;;;;4989746;28;20458;-72
2022/11/17 07:08:35;;;;;;;2.47;1.73;;;9.40;99.90;;;;;;4986045;28;20536;-72
2022/11/17 07:11:03;;;;;;;2.67;1.93;;;9.20;99.90;;;;;;4988194;28;20998;-72
2022/11/17 07:13:30;;;;;;;2.60;1.83;;;9.40;99.90;;;;;;4991239;28;20495;-72
2022/11/17 07:16:03;;;;;;;4.30;1.70;;;9.50;99.90;;;;;;4977888;28;21020;-72
2022/11/17 07:18:30;;;;;;;2.10;1.63;;;9.50;99.90;;;;;;4991422;28;20601;-72
2022/11/17 07:21:01;;;;;;;1.80;1.60;;;9.60;99.90;;;;;;4978159;28;20451;-71
2022/11/17 07:23:28;;;;;;;4.50;1.87;;;9.60;99.90;;;;;;4991093;28;20511;-72
2022/11/17 07:25:55;;;;;;;2.80;1.70;;;9.50;99.90;;;;;;4978068;28;20548;-72
2022/11/17 07:28:22;;;;;;;2.50;1.73;;;9.40;99.90;;;;;;4991352;28;20458;-72
2022/11/17 07:30:48;;;;;;;3.63;1.97;;;9.50;99.90;;;;;;4978148;28;20474;-71
2022/11/17 07:33:15;;;;;;;1.33;1.10;;;9.50;99.90;;;;;;4991435;28;20491;-72
2022/11/17 07:35:42;;;;;;;3.10;1.73;;;9.60;99.90;;;;;;4977813;28;20461;-71
2022/11/17 07:38:10;;;;;;;2.53;1.80;;;9.70;99.90;;;;;;4991077;28;20459;-71
2022/11/17 07:40:37;;;;;;;2.07;1.63;;;9.80;99.90;;;;;;4987028;28;20458;-70
2022/11/17 07:43:04;;;;;;;5.00;1.60;;;9.80;99.90;;;;;;4984452;28;20460;-72
2022/11/17 07:45:31;;;;;;;1.10;0.90;;;9.90;99.90;;;;;;4985832;28;20780;-72
2022/11/17 07:47:59;;;;;;;1.17;0.90;;;9.80;99.90;;;;;;4983324;28;20459;-72
2022/11/17 07:50:27;;;;;;;1.70;1.17;;;9.90;99.90;;;;;;4984687;28;20808;-72
2022/11/17 07:52:55;;;;;;;1.97;1.30;;;10.00;99.90;;;;;;4977167;28;20487;-74
2022/11/17 07:55:25;;;;;;;2.10;1.07;;;10.00;99.90;;;;;;4991050;28;20934;-72
2022/11/17 07:57:55;;;;;;;2.63;1.67;;;10.20;99.90;;;;;;4977392;28;20963;-71
2022/11/17 08:00:22;;;;;;;2.40;2.20;;;10.30;99.90;;;;;;4992021;28;20463;-73
2022/11/17 08:02:49;;;;;;;3.03;2.07;;;10.40;99.90;;;;;;4996384;28;20482;-73
2022/11/17 08:05:16;;;;;;;2.40;1.50;;;10.50;99.90;;;;;;4982542;28;20453;-73
2022/11/17 08:07:43;;;;;;;1.10;0.80;;;10.50;99.90;;;;;;4983948;28;20448;-73
2022/11/17 08:10:10;;;;;;;2.23;0.83;;;10.60;99.90;;;;;;4981019;28;20456;-73
2022/11/17 08:12:38;;;;;;;1.13;0.80;;;10.70;99.90;;;;;;4977823;28;20492;-71
2022/11/17 08:15:06;;;;;;;1.00;0.70;;;10.80;99.90;;;;;;4988262;28;20956;-73
2022/11/17 08:17:33;;;;;;;1.97;1.07;;;11.00;43.10;;;;;;4975251;28;20457;-73
2022/11/17 08:20:00;;;;;;;1.20;0.90;;;11.10;1.00;;;;;;4987384;28;20460;-72
2022/11/17 08:22:27;;;;;;;1.57;0.80;;;11.20;1.00;;;;;;4975106;28;20679;-72
2022/11/17 08:24:53;;;;;;;1.30;0.57;;;11.40;1.00;;;;;;4986899;28;20461;-72
2022/11/17 08:27:20;;;;;;;0.87;0.67;;;11.50;1.00;;;;;;4974961;28;20462;-72
2022/11/17 08:29:48;;;;;;;1.00;0.80;;;11.60;1.00;;;;;;4986863;28;20930;-72
2022/11/17 08:32:16;;;;;;;1.30;1.03;;;11.70;99.90;;;;;;4974806;28;20490;-73
2022/11/17 08:34:42;;;;;;;2.80;1.20;;;11.70;99.90;;;;;;4990505;28;20456;-72
2022/11/17 08:37:09;;;;;;;1.10;0.70;;;11.80;99.90;;;;;;4993858;28;20463;-73
2022/11/17 08:39:36;;;;;;;1.00;0.70;;;11.70;99.90;;;;;;4993301;28;20456;-73
2022/11/17 08:42:03;;;;;;;3.57;0.70;;;11.80;99.90;;;;;;4982913;28;20461;-73
2022/11/17 08:44:30;;;;;;;0.80;0.60;;;11.80;99.90;;;;;;4986752;28;20454;-72
2022/11/17 08:46:58;;;;;;;0.80;0.50;;;11.80;99.90;;;;;;4973494;28;21341;-72
2022/11/17 08:49:25;;;;;;;0.80;0.63;;;11.80;99.90;;;;;;4986937;28;20462;-72
2022/11/17 08:51:51;;;;;;;1.30;0.60;;;11.80;99.90;;;;;;4973329;28;20807;-72
2022/11/17 08:54:18;;;;;;;0.90;0.50;;;11.70;99.90;;;;;;4986791;28;20454;-72
2022/11/17 08:56:45;;;;;;;0.70;0.50;;;11.70;99.90;;;;;;4973351;28;20530;-73
2022/11/17 08:59:12;;;;;;;0.80;0.53;;;11.90;90.10;;;;;;4986919;28;20453;-72
2022/11/17 09:01:40;;;;;;;2.80;0.50;;;12.00;1.00;;;;;;4985594;28;20485;-71
2022/11/17 09:04:08;;;;;;;0.83;0.50;;;11.90;46.00;;;;;;4979754;28;20928;-73
2022/11/17 09:06:35;;;;;;;1.20;0.93;;;12.00;1.00;;;;;;4980965;28;20446;-72
2022/11/17 09:09:01;;;;;;;0.80;0.50;;;12.10;1.00;;;;;;4984540;28;20461;-72
2022/11/17 09:11:28;;;;;;;0.80;0.50;;;12.10;1.00;;;;;;4980158;28;20466;-72
2022/11/17 09:13:55;;;;;;;2.50;0.60;;;12.10;1.00;;;;;;4985250;28;21039;-73
2022/11/17 09:16:24;;;;;;;1.23;0.50;;;12.20;1.00;;;;;;4973788;28;20454;-72
2022/11/17 09:18:55;;;;;;;0.80;0.60;;;12.30;99.90;;;;;;4972958;28;20454;-72
2022/11/17 09:21:24;;;;;;;1.70;0.50;;;12.40;99.90;;;;;;4985904;28;20953;-72
2022/11/17 09:23:51;;;;;;;0.70;0.40;;;12.50;99.90;;;;;;4972330;28;20454;-72
2022/11/17 09:26:18;;;;;;;1.40;0.63;;;12.50;13.40;;;;;;4975021;28;20489;-73
2022/11/17 09:28:45;;;;;;;1.27;0.97;;;12.60;99.90;;;;;;4983544;28;20450;-72
2022/11/17 09:31:14;;;;;;;0.93;0.50;;;12.60;1.00;;;;;;4986759;28;20467;-72
2022/11/17 09:33:41;;;;;;;0.90;0.50;;;12.70;1.00;;;;;;4981607;28;20492;-70
2022/11/17 09:36:08;;;;;;;0.90;0.60;;;12.90;1.00;;;;;;4979853;28;20469;-72
2022/11/17 09:38:37;;;;;;;0.70;0.50;;;12.90;1.00;;;;;;4983742;28;20454;-72
2022/11/17 09:41:18;;;;;;;1.43;0.50;;;13.00;99.90;;;;;;4986816;28;20450;-72
2022/11/17 09:43:51;;;;;;;0.97;0.60;;;12.90;99.90;;;;;;4984241;28;20453;-72
2022/11/17 09:46:22;;;;;;;1.30;0.70;;;13.00;1.00;;;;;;4973829;28;20458;-73
2022/11/17 09:49:02;;;;;;;3.50;0.60;;;13.00;99.90;;;;;;4986145;28;20447;-72
2022/11/17 09:51:32;;;;;;;2.03;0.60;;;13.00;1.00;;;;;;4973386;28;20800;-73
2022/11/17 09:54:07;;;;;;;2.10;0.60;;;13.00;5.60;;;;;;4974877;28;20500;-72
2022/11/17 09:56:34;;;;;;;1.23;0.60;;;13.10;99.90;;;;;;4982428;28;20461;-72
2022/11/17 09:59:04;;;;;;;0.97;0.60;;;13.10;1.00;;;;;;4976816;28;20448;-72
2022/11/17 10:01:31;;;;;;;0.80;0.47;;;13.00;99.90;;;;;;4991837;28;20500;-72
2022/11/17 10:04:00;;;;;;;0.80;0.70;;;13.00;1.00;;;;;;4978252;28;20472;-73
2022/11/17 10:06:28;;;;;;;1.50;0.67;;;12.90;1.00;;;;;;4981006;28;20784;-73
2022/11/17 10:09:02;;;;;;;1.73;0.80;;;12.90;99.90;;;;;;4983089;28;20457;-72
2022/11/17 10:11:33;;;;;;;1.40;0.90;;;12.90;99.90;;;;;;4979301;28;20446;-72
2022/11/17 10:14:12;;;;;;;1.67;0.60;;;13.00;10.10;;;;;;4979136;28;20489;-73
2022/11/17 10:16:40;;;;;;;1.50;0.70;;;;;;;;;;4976257;28;20450;-72
2022/11/17 10:19:14;;;;;;;1.67;0.50;;;13.10;99.90;;;;;;4981811;28;20449;-72
2022/11/17 10:21:41;;;;;;;1.00;0.60;;;;;;;;;;4975253;28;20450;-72
2022/11/17 10:24:09;;;;;;;1.93;0.70;;;13.20;1.00;;;;;;4981951;28;20473;-72
2022/11/17 10:26:45;;;;;;;3.33;0.70;;;13.10;1.00;;;;;;4975421;28;20843;-73
2022/11/17 10:29:14;;;;;;;0.93;0.60;;;13.20;1.00;;;;;;4984429;28;20437;-72
2022/11/17 10:31:42;;;;;;;1.00;0.63;;;13.10;1.00;;;;;;4972901;28;20462;-72
2022/11/17 10:34:10;;;;;;;1.20;0.67;;;13.20;1.00;;;;;;4983756;28;20481;-73
2022/11/17 10:36:46;;;;;;;1.47;0.93;;;13.40;1.00;;;;;;4972691;28;20509;-71
2022/11/17 10:39:33;;;;;;;1.23;0.43;;;13.60;1.00;;;;;;4984853;28;20496;-70
2022/11/17 10:42:11;;;;;;;1.00;0.50;;;13.60;1.00;;;;;;4981786;28;20460;-71
2022/11/17 10:44:42;;;;;;;4.30;1.70;;;13.70;1.00;;;;;;4989423;28;20452;-71
2022/11/17 10:47:24;;;;;;;1.53;0.70;;;;;;;;;;4991939;28;20465;-70
2022/11/17 10:50:05;;;;;;;1.10;0.90;;;;;;;;;;4984237;28;20799;-71
2022/11/17 10:52:32;;;;;;;1.10;0.60;;;;;;;;;;4984994;28;20452;-71
2022/11/17 10:55:10;;;;;;;2.00;1.63;;;;;;;;;;4981063;28;20456;-72
2022/11/17 10:57:46;;;;;;;1.57;0.50;;;13.60;1.00;;;;;;4973757;28;20473;-70
2022/11/17 11:00:27;;;;;;;0.73;0.57;;;13.50;1.00;;;;;;4984507;28;20460;-71
2022/11/17 11:03:16;;;;;;;2.03;0.50;;;13.30;1.00;;;;;;4991032;28;20493;-71
2022/11/17 11:06:03;;;;;;;0.90;0.53;;;13.30;1.00;;;;;;4972541;28;20850;-73
2022/11/17 11:08:41;;;;;;;4.20;0.60;;;13.20;1.00;;;;;;4979567;28;20462;-71
2022/11/17 11:11:21;;;;;;;2.13;0.60;;;13.30;1.00;;;;;;4974904;28;20460;-71
2022/11/17 11:13:54;;;;;;;1.00;0.50;;;13.40;1.00;;;;;;4983999;28;20474;-71
2022/11/17 11:16:21;;;;;;;2.50;0.63;;;13.40;1.00;;;;;;4972301;28;20457;-71
2022/11/17 11:18:50;;;;;;;2.03;1.00;;;13.40;1.00;;;;;;4977987;28;20453;-71
2022/11/17 11:21:28;;;;;;;0.70;0.50;;;13.40;1.00;;;;;;4978333;28;20793;-73
2022/11/17 11:24:03;;;;;;;1.30;0.90;;;13.40;1.00;;;;;;4979490;28;20449;-72
2022/11/17 11:26:48;;;;;;;1.27;0.97;;;13.30;1.00;;;;;;4974887;28;20929;-71
2022/11/17 11:29:26;;;;;;;1.17;0.73;;;13.30;1.00;;;;;;4984211;28;20955;-71
2022/11/17 11:32:20;;;;;;;0.80;0.50;;;13.30;1.00;;;;;;4983770;28;20447;-73
2022/11/17 11:35:18;;;;;;;3.00;1.20;;;13.40;1.00;;;;;;4975687;28;20480;-71
2022/11/17 11:37:53;;;;;;;2.67;1.00;;;13.50;99.90;;;;;;4975807;28;20446;-71
2022/11/17 11:40:26;;;;;;;0.80;0.53;;;13.40;1.00;;;;;;4981865;28;20813;-71
2022/11/17 11:42:57;;;;;;;4.50;1.30;;;13.30;1.00;;;;;;4977059;28;20456;-71
2022/11/17 11:45:41;;;;;;;1.30;0.70;;;13.20;1.00;;;;;;4979715;28;20442;-71
2022/11/17 11:48:17;;;;;;;2.27;0.87;;;13.20;1.00;;;;;;4972047;28;20461;-71
2022/11/17 11:50:53;;;;;;;1.00;0.60;;;13.20;1.00;;;;;;4975651;28;20465;-71
2022/11/17 11:53:26;;;;;;;1.20;0.83;;;13.20;1.00;;;;;;4984451;28;20477;-71
2022/11/17 11:56:03;;;;;;;2.37;0.63;;;13.30;1.00;;;;;;4979098;28;20455;-71
2022/11/17 11:58:31;;;;;;;1.53;0.70;;;13.20;1.00;;;;;;4982496;28;20453;-72
2022/11/17 12:01:04;;;;;;;1.37;0.90;;;13.20;1.00;;;;;;4981197;28;21394;-71
2022/11/17 12:03:37;;;;;;;1.73;0.60;;;13.40;1.00;;;;;;4993529;28;20798;-70
2022/11/17 12:09:10;;;;;;;2.03;1.27;;;13.50;1.00;;;;;;4981806;28;20438;-72
2022/11/17 12:14:26;;;;;;;1.80;0.97;;;13.60;1.00;;;;;;4983760;28;20593;-71
2022/11/17 12:17:01;;;;;;;3.23;1.27;;;13.60;1.00;;;;;;4978950;28;20472;-71
2022/11/17 12:19:52;;;;;;;3.30;0.90;;;13.70;1.00;;;;;;4982453;28;20449;-71
2022/11/17 12:22:49;;;;;;;5.03;0.80;;;13.70;1.00;;;;;;4984953;28;20858;-71
2022/11/17 12:25:18;;;;;;;2.70;0.70;;;13.80;99.90;;;;;;4977450;28;20454;-71
2022/11/17 12:27:47;;;;;;;2.00;1.00;;;13.90;99.90;;;;;;4980306;28;20446;-71
2022/11/17 12:30:47;;;;;;;1.43;0.60;;;14.00;99.90;;;;;;4982295;28;20941;-71
2022/11/17 12:33:15;;;;;;;2.50;1.13;;;13.90;99.90;;;;;;4975103;28;20844;-71
2022/11/17 12:35:42;;;;;;;4.07;0.80;;;13.90;99.90;;;;;;4986749;28;20453;-71
2022/11/17 12:38:38;;;;;;;1.00;0.57;;;13.90;99.90;;;;;;4974823;28;20542;-73
2022/11/17 12:41:05;;;;;;;0.90;0.53;;;14.00;99.90;;;;;;4979127;28;20480;-72
2022/11/17 12:43:33;;;;;;;0.80;0.60;;;14.10;99.90;;;;;;4984083;28;20937;-72
2022/11/17 12:46:10;;;;;;;3.40;0.80;;;14.20;99.90;;;;;;4976736;28;20807;-72
2022/11/17 12:48:40;;;;;;;2.13;0.70;;;14.00;99.90;;;;;;4986256;28;20449;-72
2022/11/17 12:51:14;;;;;;;2.53;0.80;;;14.00;99.90;;;;;;4975217;28;20937;-71
2022/11/17 12:53:53;;;;;;;1.90;0.70;;;14.00;99.90;;;;;;4986394;28;20504;-72
2022/11/17 12:56:40;;;;;;;3.47;1.00;;;14.20;99.90;;;;;;4974630;28;20782;-72
2022/11/17 12:59:53;;;;;;;7.30;0.93;;;14.10;99.90;;;;;;4987604;28;20461;-71
2022/11/17 13:02:32;;;;;;;1.07;0.97;;;14.20;99.90;;;;;;4986476;28;20470;-72
2022/11/17 13:05:04;;;;;;;3.70;1.87;;;14.30;99.90;;;;;;4987677;28;20465;-72
2022/11/17 13:07:31;;;;;;;1.27;0.73;;;14.20;99.90;;;;;;4989407;28;20457;-72
2022/11/17 13:10:01;;;;;;;1.73;1.10;;;14.20;99.90;;;;;;4985226;28;20465;-72
2022/11/17 13:12:30;;;;;;;2.43;0.70;;;14.40;99.90;;;;;;4978229;28;20742;-72
2022/11/17 13:14:58;;;;;;;5.87;0.90;;;14.50;99.90;;;;;;4992054;28;20482;-73
2022/11/17 13:17:28;;;;;;;2.07;1.17;;;14.50;99.90;;;;;;4979829;28;20454;-72
2022/11/17 13:20:01;;;;;;;2.10;1.07;;;14.40;99.90;;;;;;4992567;28;20945;-74
2022/11/17 13:22:28;;;;;;;2.27;1.50;;;14.20;99.90;;;;;;4979142;28;20451;-71
2022/11/17 13:24:56;;;;;;;1.00;0.90;;;14.30;99.90;;;;;;4991998;28;20469;-73
2022/11/17 13:27:25;;;;;;;4.47;1.00;;;14.70;99.90;;;;;;4975145;28;20537;-71
2022/11/17 13:29:52;;;;;;;1.13;0.87;;;14.70;99.90;;;;;;4986560;28;20464;-71
2022/11/17 13:32:21;;;;;;;1.50;0.60;;;14.60;99.90;;;;;;4973613;28;20476;-73
2022/11/17 13:34:55;;;;;;;0.80;0.40;;;14.60;99.90;;;;;;4986216;28;20490;-72
2022/11/17 13:37:25;;;;;;;1.20;0.50;;;14.60;99.90;;;;;;4973531;28;20532;-73
2022/11/17 13:39:59;;;;;;;2.80;0.63;;;14.10;99.90;;;;;;4975215;28;20457;-73
2022/11/17 13:42:30;;;;;;;2.60;0.70;;;13.90;99.90;;;;;;4991225;28;20448;-73
2022/11/17 13:44:59;;;;;;;3.97;0.87;;;13.70;99.90;;;;;;4981054;28;20744;-73
2022/11/17 13:47:41;;;;;;;4.90;2.20;;;13.70;99.90;;;;;;4977371;28;20463;-71
2022/11/17 13:50:35;;;;;;;1.50;0.77;;;13.70;99.90;;;;;;4984388;28;20449;-70
2022/11/17 13:53:12;;;;;;;4.03;0.87;;;13.70;99.90;;;;;;4983097;28;20972;-72
2022/11/17 13:55:44;;;;;;;4.50;1.40;;;13.90;99.90;;;;;;4975647;28;20445;-73
2022/11/17 13:58:22;;;;;;;2.57;0.90;;;13.80;99.90;;;;;;4981736;28;20454;-72
2022/11/17 14:00:51;;;;;;;4.93;0.90;;;14.00;99.90;;;;;;4978320;28;20461;-72
2022/11/17 14:03:32;;;;;;;4.33;1.27;;;14.00;99.90;;;;;;4992359;28;20450;-73